Time,TemperatureF,DewpointF,PressureIn,WindDirection,WindDirectionDegrees,WindSpeedMPH,WindSpeedGustMPH,Humidity,HourlyPrecipIn,Conditions,Clouds,dailyrainin,SoftwareType,DateUTC
2013-06-07 00:05:00,60.8,54.6,29.80,NW,319,1.0,2.0,80,0.00,,,0.00,Wunderground v.1.15,2013-06-07 07:05:00,
2013-06-07 00:10:00,60.8,54.6,29.80,NW,319,1.0,3.0,80,0.00,,,0.00,Wunderground v.1.15,2013-06-07 07:10:00,
2013-06-07 00:20:00,60.8,54.6,29.80,NW,319,2.0,2.0,80,0.00,,,0.00,Wunderground v.1.15,2013-06-07 07:20:00,
2013-06-07 00:30:00,60.8,54.6,29.80,NW,319,1.0,1.0,80,0.00,,,0.00,Wunderground v.1.15,2013-06-07 07:30:00,
2013-06-07 00:40:00,60.8,54.6,29.80,NW,319,1.0,1.0,80,0.00,,,0.00,Wunderground v.1.15,2013-06-07 07:40:00,
2013-06-07 00:45:00,60.9,54.7,29.80,NW,319,1.0,1.0,80,0.00,,,0.00,Wunderground v.1.15,2013-06-07 07:45:00,
2013-06-07 00:50:00,60.9,54.7,29.80,NW,319,1.0,1.0,80,0.00,,,0.00,Wunderground v.1.15,2013-06-07 07:50:00,
2013-06-07 01:05:00,61.1,54.5,29.79,NW,319,1.0,2.0,79,0.00,,,0.00,Wunderground v.1.15,2013-06-07 08:05:00,
2013-06-07 01:15:00,61.2,54.6,29.79,NW,319,1.0,1.0,79,0.00,,,0.00,Wunderground v.1.15,2013-06-07 08:15:00,
2013-06-07 01:25:00,61.2,54.6,29.79,NW,319,0.0,0.0,79,0.00,,,0.00,Wunderground v.1.15,2013-06-07 08:25:00,
2013-06-07 01:35:00,61.1,54.5,29.78,NW,319,1.0,1.0,79,0.00,,,0.00,Wunderground v.1.15,2013-06-07 08:35:00,
2013-06-07 01:40:00,61.1,54.5,29.78,NW,319,0.0,1.0,79,0.00,,,0.00,Wunderground v.1.15,2013-06-07 08:40:00,
2013-06-07 01:50:00,61.1,54.5,29.78,NW,319,1.0,1.0,79,0.00,,,0.00,Wunderground v.1.15,2013-06-07 08:50:00,
2013-06-07 02:00:00,60.9,54.3,29.78,NW,319,0.0,2.0,79,0.00,,,0.00,Wunderground v.1.15,2013-06-07 09:00:00,
2013-06-07 02:10:00,60.9,54.3,29.78,NW,319,1.0,1.0,79,0.00,,,0.00,Wunderground v.1.15,2013-06-07 09:10:00,
2013-06-07 02:15:00,60.9,54.3,29.78,NW,319,1.0,1.0,79,0.00,,,0.00,Wunderground v.1.15,2013-06-07 09:15:00,
2013-06-07 02:20:00,60.9,54.3,29.78,NW,319,0.0,0.0,79,0.00,,,0.00,Wunderground v.1.15,2013-06-07 09:20:00,
2013-06-07 02:25:00,60.9,54.3,29.78,NW,319,1.0,1.0,79,0.00,,,0.00,Wunderground v.1.15,2013-06-07 09:25:00,
2013-06-07 02:35:00,60.8,54.2,29.77,NW,319,0.0,0.0,79,0.00,,,0.00,Wunderground v.1.15,2013-06-07 09:35:00,
2013-06-07 02:45:00,60.8,54.2,29.76,South,179,1.0,2.0,79,0.00,,,0.00,Wunderground v.1.15,2013-06-07 09:45:00,
2013-06-07 02:55:00,60.6,54.0,29.76,South,182,2.0,2.0,79,0.00,,,0.00,Wunderground v.1.15,2013-06-07 09:55:00,
2013-06-07 03:05:00,60.6,54.0,29.76,SW,227,2.0,2.0,79,0.00,,,0.00,Wunderground v.1.15,2013-06-07 10:05:00,
2013-06-07 03:15:00,60.6,54.0,29.76,SW,226,0.0,1.0,79,0.00,,,0.00,Wunderground v.1.15,2013-06-07 10:15:00,
2013-06-07 03:25:00,60.6,54.0,29.76,SW,227,1.0,2.0,79,0.00,,,0.00,Wunderground v.1.15,2013-06-07 10:25:00,
2013-06-07 03:30:00,60.6,54.0,29.76,SW,230,1.0,4.0,79,0.00,,,0.00,Wunderground v.1.15,2013-06-07 10:30:00,
2013-06-07 03:35:00,60.5,54.0,29.76,SW,232,2.0,2.0,79,0.00,,,0.00,Wunderground v.1.15,2013-06-07 10:35:00,
2013-06-07 03:40:00,60.5,54.0,29.76,SW,233,2.0,5.0,79,0.00,,,0.00,Wunderground v.1.15,2013-06-07 10:40:00,
2013-06-07 03:50:00,60.5,54.0,29.76,WSW,239,2.0,2.0,79,0.00,,,0.00,Wunderground v.1.15,2013-06-07 10:50:00,
2013-06-07 04:00:00,60.3,53.8,29.75,WSW,239,2.0,3.0,79,0.00,,,0.00,Wunderground v.1.15,2013-06-07 11:00:00,
2013-06-07 04:10:00,60.3,53.8,29.75,WSW,239,1.0,1.0,79,0.00,,,0.00,Wunderground v.1.15,2013-06-07 11:10:00,
2013-06-07 04:20:00,60.3,53.8,29.75,WSW,239,0.0,0.0,79,0.00,,,0.00,Wunderground v.1.15,2013-06-07 11:20:00,
2013-06-07 04:30:00,60.3,53.8,29.75,WSW,239,0.0,1.0,79,0.00,,,0.00,Wunderground v.1.15,2013-06-07 11:30:00,
2013-06-07 04:40:00,60.3,53.8,29.75,WSW,239,0.0,2.0,79,0.00,,,0.00,Wunderground v.1.15,2013-06-07 11:40:00,
2013-06-07 04:45:00,60.3,53.8,29.75,WSW,239,1.0,2.0,79,0.00,,,0.00,Wunderground v.1.15,2013-06-07 11:45:00,
2013-06-07 04:51:00,60.3,53.8,29.75,WSW,239,2.0,2.0,79,0.00,,,0.00,Wunderground v.1.15,2013-06-07 11:51:00,
2013-06-07 04:55:00,60.3,53.8,29.75,WSW,239,2.0,2.0,79,0.00,,,0.00,Wunderground v.1.15,2013-06-07 11:55:00,
2013-06-07 05:05:00,60.5,54.0,29.75,WSW,239,0.0,1.0,79,0.00,,,0.00,Wunderground v.1.15,2013-06-07 12:05:00,
2013-06-07 05:15:00,60.5,54.0,29.75,WSW,239,0.0,0.0,79,0.00,,,0.00,Wunderground v.1.15,2013-06-07 12:15:00,
2013-06-07 05:25:00,60.6,54.0,29.75,WSW,239,0.0,0.0,79,0.00,,,0.00,Wunderground v.1.15,2013-06-07 12:25:00,
2013-06-07 05:30:00,60.6,54.0,29.75,WSW,239,0.0,0.0,79,0.00,,,0.00,Wunderground v.1.15,2013-06-07 12:30:00,
2013-06-07 05:36:00,60.6,54.0,29.75,WSW,239,0.0,0.0,79,0.00,,,0.00,Wunderground v.1.15,2013-06-07 12:36:00,
2013-06-07 05:50:00,60.6,54.0,29.75,WSW,239,1.0,1.0,79,0.00,,,0.00,Wunderground v.1.15,2013-06-07 12:50:00,
2013-06-07 06:00:00,60.6,54.0,29.75,WSW,239,1.0,1.0,79,0.00,,,0.00,Wunderground v.1.15,2013-06-07 13:00:00,
2013-06-07 06:10:00,60.8,54.2,29.75,WSW,239,1.0,1.0,79,0.00,,,0.00,Wunderground v.1.15,2013-06-07 13:10:00,
2013-06-07 06:20:00,60.6,53.7,29.75,ESE,110,1.0,1.0,78,0.00,,,0.00,Wunderground v.1.15,2013-06-07 13:20:00,
2013-06-07 06:30:00,60.6,54.0,29.75,ESE,110,0.0,0.0,79,0.00,,,0.00,Wunderground v.1.15,2013-06-07 13:30:00,
2013-06-07 06:35:00,60.8,54.2,29.75,ESE,110,0.0,0.0,79,0.00,,,0.00,Wunderground v.1.15,2013-06-07 13:35:00,
2013-06-07 06:40:00,60.6,54.0,29.75,ESE,112,0.0,0.0,79,0.00,,,0.00,Wunderground v.1.15,2013-06-07 13:40:00,
2013-06-07 06:45:00,60.8,54.2,29.75,ESE,112,1.0,1.0,79,0.00,,,0.00,Wunderground v.1.15,2013-06-07 13:45:00,
2013-06-07 06:55:00,61.1,54.2,29.75,NNE,23,1.0,1.0,78,0.00,,,0.00,Wunderground v.1.15,2013-06-07 13:55:00,
2013-06-07 07:05:00,61.1,54.2,29.75,NNE,23,0.0,0.0,78,0.00,,,0.00,Wunderground v.1.15,2013-06-07 14:05:00,
2013-06-07 07:15:00,60.9,54.0,29.76,NNE,18,0.0,0.0,78,0.00,,,0.00,Wunderground v.1.15,2013-06-07 14:15:00,
2013-06-07 07:25:00,61.2,54.3,29.76,North,0,1.0,1.0,78,0.00,,,0.00,Wunderground v.1.15,2013-06-07 14:25:00,
2013-06-07 07:35:00,61.4,54.5,29.76,North,0,0.0,1.0,78,0.00,,,0.00,Wunderground v.1.15,2013-06-07 14:35:00,
2013-06-07 07:45:00,61.7,54.4,29.76,NE,35,0.0,2.0,77,0.00,,,0.00,Wunderground v.1.15,2013-06-07 14:45:00,
2013-06-07 07:50:00,61.6,54.3,29.76,NE,35,1.0,2.0,77,0.00,,,0.00,Wunderground v.1.15,2013-06-07 14:50:00,
2013-06-07 07:55:00,61.6,54.3,29.76,NE,35,1.0,1.0,77,0.00,,,0.00,Wunderground v.1.15,2013-06-07 14:55:00,
2013-06-07 08:00:00,61.6,54.3,29.76,NE,35,1.0,1.0,77,0.00,,,0.00,Wunderground v.1.15,2013-06-07 15:00:00,
2013-06-07 08:10:00,61.7,54.4,29.76,NE,37,1.0,1.0,77,0.00,,,0.00,Wunderground v.1.15,2013-06-07 15:10:00,
2013-06-07 08:20:00,61.9,54.6,29.77,NE,37,0.0,0.0,77,0.00,,,0.00,Wunderground v.1.15,2013-06-07 15:20:00,
2013-06-07 08:30:00,62.0,54.7,29.77,East,85,1.0,1.0,77,0.00,,,0.00,Wunderground v.1.15,2013-06-07 15:30:00,
2013-06-07 08:40:00,62.4,54.7,29.77,SSE,150,1.0,1.0,76,0.00,,,0.00,Wunderground v.1.15,2013-06-07 15:40:00,
2013-06-07 08:45:00,62.4,54.7,29.77,SW,220,1.0,3.0,76,0.00,,,0.00,Wunderground v.1.15,2013-06-07 15:45:00,
2013-06-07 08:55:00,62.4,54.7,29.77,WNW,294,2.0,2.0,76,0.00,,,0.00,Wunderground v.1.15,2013-06-07 15:55:00,
2013-06-07 09:05:00,62.5,54.5,29.77,WNW,294,1.0,1.0,75,0.00,,,0.00,Wunderground v.1.15,2013-06-07 16:05:00,
2013-06-07 09:10:00,62.7,55.0,29.77,WNW,292,1.0,2.0,76,0.00,,,0.00,Wunderground v.1.15,2013-06-07 16:10:00,
2013-06-07 09:16:00,62.8,55.1,29.77,South,171,1.0,1.0,76,0.00,,,0.00,Wunderground v.1.15,2013-06-07 16:16:00,
2013-06-07 09:20:00,62.8,55.1,29.77,SSE,152,2.0,2.0,76,0.00,,,0.00,Wunderground v.1.15,2013-06-07 16:20:00,
2013-06-07 09:30:00,62.8,55.1,29.76,SSE,155,2.0,2.0,76,0.00,,,0.00,Wunderground v.1.15,2013-06-07 16:30:00,
2013-06-07 09:35:00,63.0,55.3,29.76,SE,143,3.0,3.0,76,0.00,,,0.00,Wunderground v.1.15,2013-06-07 16:35:00,
2013-06-07 09:45:00,63.2,55.1,29.76,SE,143,1.0,2.0,75,0.00,,,0.00,Wunderground v.1.15,2013-06-07 16:45:00,
2013-06-07 09:55:00,63.5,55.1,29.76,SE,143,1.0,1.0,74,0.00,,,0.00,Wunderground v.1.15,2013-06-07 16:55:00,
2013-06-07 10:00:00,63.5,55.1,29.76,SE,143,1.0,2.0,74,0.00,,,0.00,Wunderground v.1.15,2013-06-07 17:00:00,
2013-06-07 10:05:00,63.8,55.4,29.77,SE,145,2.0,2.0,74,0.00,,,0.00,Wunderground v.1.15,2013-06-07 17:05:00,
2013-06-07 10:20:00,64.3,55.8,29.77,South,171,2.0,2.0,74,0.00,,,0.00,Wunderground v.1.15,2013-06-07 17:20:00,
2013-06-07 10:30:00,64.6,55.7,29.77,South,181,3.0,3.0,73,0.00,,,0.00,Wunderground v.1.15,2013-06-07 17:30:00,
2013-06-07 10:35:00,64.8,55.9,29.77,SSW,193,3.0,3.0,73,0.00,,,0.00,Wunderground v.1.15,2013-06-07 17:35:00,
2013-06-07 10:45:00,65.1,56.2,29.77,South,181,3.0,3.0,73,0.00,,,0.00,Wunderground v.1.15,2013-06-07 17:45:00,
2013-06-07 10:50:00,64.9,56.0,29.77,SSW,205,3.0,3.0,73,0.00,,,0.00,Wunderground v.1.15,2013-06-07 17:50:00,
2013-06-07 11:00:00,64.5,56.0,29.77,SSW,195,4.0,4.0,74,0.00,,,0.00,Wunderground v.1.15,2013-06-07 18:00:00,
2013-06-07 11:10:00,64.5,56.0,29.77,SW,224,4.0,7.0,74,0.00,,,0.00,Wunderground v.1.15,2013-06-07 18:10:00,
2013-06-07 11:15:00,64.5,56.0,29.77,South,186,4.0,7.0,74,0.00,,,0.00,Wunderground v.1.15,2013-06-07 18:15:00,
2013-06-07 11:25:00,65.3,56.4,29.77,WSW,240,4.0,6.0,73,0.00,,,0.00,Wunderground v.1.15,2013-06-07 18:25:00,
2013-06-07 11:40:00,65.4,56.5,29.77,South,182,4.0,7.0,73,0.00,,,0.00,Wunderground v.1.15,2013-06-07 18:40:00,
2013-06-07 11:45:00,65.9,56.6,29.77,SSW,213,4.0,7.0,72,0.00,,,0.00,Wunderground v.1.15,2013-06-07 18:45:00,
2013-06-07 11:51:00,66.3,56.2,29.76,South,189,4.0,7.0,70,0.00,,,0.00,Wunderground v.1.15,2013-06-07 18:51:00,
2013-06-07 12:05:00,66.9,56.8,29.76,SE,145,4.0,4.0,70,0.00,,,0.00,Wunderground v.1.15,2013-06-07 19:05:00,
2013-06-07 12:10:00,67.3,56.8,29.76,South,176,4.0,6.0,69,0.00,,,0.00,Wunderground v.1.15,2013-06-07 19:10:00,
2013-06-07 12:20:00,67.8,56.9,29.75,SW,232,5.0,5.0,68,0.00,,,0.00,Wunderground v.1.15,2013-06-07 19:20:00,
2013-06-07 12:30:00,68.1,57.1,29.75,South,169,4.0,4.0,68,0.00,,,0.00,Wunderground v.1.15,2013-06-07 19:30:00,
2013-06-07 12:40:00,68.3,57.3,29.75,SSE,154,5.0,5.0,68,0.00,,,0.00,Wunderground v.1.15,2013-06-07 19:40:00,
2013-06-07 12:55:00,68.6,57.2,29.75,WSW,239,5.0,7.0,67,0.00,,,0.00,Wunderground v.1.15,2013-06-07 19:55:00,
2013-06-07 13:05:00,68.9,57.5,29.75,SW,226,5.0,9.0,67,0.00,,,0.00,Wunderground v.1.15,2013-06-07 20:05:00,
2013-06-07 13:10:00,68.3,56.9,29.75,SW,222,6.0,9.0,67,0.00,,,0.00,Wunderground v.1.15,2013-06-07 20:10:00,
2013-06-07 13:15:00,67.6,57.5,29.74,SSW,193,7.0,7.0,70,0.00,,,0.00,Wunderground v.1.15,2013-06-07 20:15:00,
2013-06-07 13:25:00,67.8,57.7,29.74,SSW,199,7.0,7.0,70,0.00,,,0.00,Wunderground v.1.15,2013-06-07 20:25:00,
2013-06-07 13:30:00,68.1,57.9,29.74,SSE,164,7.0,7.0,70,0.00,,,0.00,Wunderground v.1.15,2013-06-07 20:30:00,
2013-06-07 13:35:00,67.8,57.7,29.74,SSW,203,7.0,10.0,70,0.00,,,0.00,Wunderground v.1.15,2013-06-07 20:35:00,
2013-06-07 13:50:00,68.8,57.8,29.74,SSE,162,6.0,7.0,68,0.00,,,0.00,Wunderground v.1.15,2013-06-07 20:50:00,
2013-06-07 14:00:00,68.9,57.5,29.74,South,188,6.0,6.0,67,0.00,,,0.00,Wunderground v.1.15,2013-06-07 21:00:00,
2013-06-07 14:10:00,69.3,57.5,29.73,SSW,202,6.0,6.0,66,0.00,,,0.00,Wunderground v.1.15,2013-06-07 21:10:00,
2013-06-07 14:25:00,68.3,56.5,29.73,SW,224,7.0,10.0,66,0.00,,,0.00,Wunderground v.1.15,2013-06-07 21:25:00,
2013-06-07 14:35:00,68.8,56.6,29.72,SW,232,6.0,9.0,65,0.00,,,0.00,Wunderground v.1.15,2013-06-07 21:35:00,
2013-06-07 14:45:00,69.3,57.0,29.72,SW,223,7.0,11.0,65,0.00,,,0.00,Wunderground v.1.15,2013-06-07 21:45:00,
2013-06-07 14:50:00,69.3,58.3,29.72,South,182,7.0,11.0,68,0.00,,,0.00,Wunderground v.1.15,2013-06-07 21:50:00,
2013-06-07 14:55:00,70.1,57.8,29.72,SSE,160,7.0,7.0,65,0.00,,,0.00,Wunderground v.1.15,2013-06-07 21:55:00,
2013-06-07 15:01:00,69.8,57.5,29.71,SSW,199,6.0,6.0,65,0.00,,,0.00,Wunderground v.1.15,2013-06-07 22:01:00,
2013-06-07 15:05:00,68.9,57.1,29.71,SSW,199,7.0,7.0,66,0.00,,,0.00,Wunderground v.1.15,2013-06-07 22:05:00,
2013-06-07 15:15:00,68.4,57.8,29.71,SW,224,7.0,7.0,69,0.00,,,0.00,Wunderground v.1.15,2013-06-07 22:15:00,
2013-06-07 15:20:00,68.8,57.8,29.71,South,176,7.0,7.0,68,0.00,,,0.00,Wunderground v.1.15,2013-06-07 22:20:00,
2013-06-07 15:30:00,68.3,57.7,29.70,South,174,7.0,7.0,69,0.00,,,0.00,Wunderground v.1.15,2013-06-07 22:30:00,
2013-06-07 15:40:00,68.6,56.8,29.70,SSW,212,6.0,6.0,66,0.00,,,0.00,Wunderground v.1.15,2013-06-07 22:40:00,
2013-06-07 15:50:00,69.1,57.7,29.70,South,181,6.0,10.0,67,0.00,,,0.00,Wunderground v.1.15,2013-06-07 22:50:00,
2013-06-07 16:05:00,68.1,57.1,29.69,WSW,247,8.0,14.0,68,0.00,,,0.00,Wunderground v.1.15,2013-06-07 23:05:00,
2013-06-07 16:10:00,67.3,56.8,29.69,SSE,162,9.0,14.0,69,0.00,,,0.00,Wunderground v.1.15,2013-06-07 23:10:00,
2013-06-07 16:20:00,66.4,56.7,29.69,SSW,199,9.0,9.0,71,0.00,,,0.00,Wunderground v.1.15,2013-06-07 23:20:00,
2013-06-07 16:25:00,66.1,56.4,29.69,SW,230,10.0,10.0,71,0.00,,,0.00,Wunderground v.1.15,2013-06-07 23:25:00,
2013-06-07 16:35:00,67.1,57.0,29.69,South,184,7.0,7.0,70,0.00,,,0.00,Wunderground v.1.15,2013-06-07 23:35:00,
2013-06-07 16:45:00,67.9,56.9,29.69,SW,216,7.0,7.0,68,0.00,,,0.00,Wunderground v.1.15,2013-06-07 23:45:00,
2013-06-07 16:50:00,67.9,56.5,29.69,SSW,198,6.0,7.0,67,0.00,,,0.00,Wunderground v.1.15,2013-06-07 23:50:00,
2013-06-07 17:10:00,66.1,56.4,29.68,SW,234,9.0,9.0,71,0.00,,,0.00,Wunderground v.1.15,2013-06-08 00:10:00,
2013-06-07 17:20:00,66.3,56.2,29.68,South,186,8.0,8.0,70,0.00,,,0.00,Wunderground v.1.15,2013-06-08 00:20:00,
2013-06-07 17:35:00,66.9,56.4,29.68,South,188,5.0,5.0,69,0.00,,,0.00,Wunderground v.1.15,2013-06-08 00:35:00,
2013-06-07 17:40:00,66.3,56.2,29.68,SW,216,6.0,7.0,70,0.00,,,0.00,Wunderground v.1.15,2013-06-08 00:40:00,
2013-06-07 17:55:00,65.3,56.4,29.68,South,191,7.0,10.0,73,0.00,,,0.00,Wunderground v.1.15,2013-06-08 00:55:00,
2013-06-07 18:05:00,65.6,55.9,29.68,SSW,208,6.0,6.0,71,0.00,,,0.00,Wunderground v.1.15,2013-06-08 01:05:00,
2013-06-07 18:20:00,66.1,56.0,29.68,SSE,161,4.0,7.0,70,0.00,,,0.00,Wunderground v.1.15,2013-06-08 01:20:00,
2013-06-07 18:25:00,65.9,56.2,29.68,SSW,199,5.0,7.0,71,0.00,,,0.00,Wunderground v.1.15,2013-06-08 01:25:00,
2013-06-07 18:35:00,65.4,55.7,29.69,SSE,164,5.0,8.0,71,0.00,,,0.00,Wunderground v.1.15,2013-06-08 01:35:00,
2013-06-07 18:40:00,65.4,55.7,29.69,SSW,213,6.0,8.0,71,0.00,,,0.00,Wunderground v.1.15,2013-06-08 01:40:00,
2013-06-07 18:45:00,65.3,55.7,29.69,SSE,151,6.0,6.0,71,0.00,,,0.00,Wunderground v.1.15,2013-06-08 01:45:00,
2013-06-07 18:55:00,64.8,55.6,29.69,SSE,168,6.0,6.0,72,0.00,,,0.00,Wunderground v.1.15,2013-06-08 01:55:00,
2013-06-07 19:10:00,64.1,55.6,29.69,SSE,168,5.0,7.0,74,0.00,,,0.00,Wunderground v.1.15,2013-06-08 02:10:00,
2013-06-07 19:20:00,63.8,55.4,29.69,SSW,192,5.0,5.0,74,0.00,,,0.00,Wunderground v.1.15,2013-06-08 02:20:00,
2013-06-07 19:35:00,63.0,55.3,29.70,SSE,162,4.0,4.0,76,0.00,,,0.00,Wunderground v.1.15,2013-06-08 02:35:00,
2013-06-07 19:50:00,62.4,55.1,29.70,SSE,161,5.0,6.0,77,0.00,,,0.00,Wunderground v.1.15,2013-06-08 02:50:00,
2013-06-07 20:05:00,61.9,55.0,29.70,South,171,3.0,3.0,78,0.00,,,0.00,Wunderground v.1.15,2013-06-08 03:05:00,
2013-06-07 20:20:00,61.6,55.0,29.71,SSW,203,3.0,5.0,79,0.00,,,0.00,Wunderground v.1.15,2013-06-08 03:20:00,
2013-06-07 20:30:00,61.6,55.4,29.71,South,175,2.0,4.0,80,0.00,,,0.00,Wunderground v.1.15,2013-06-08 03:30:00,
2013-06-07 20:45:00,61.2,55.7,29.72,SSE,154,2.0,5.0,82,0.00,,,0.00,Wunderground v.1.15,2013-06-08 03:45:00,
2013-06-07 20:50:00,61.2,55.7,29.72,South,179,2.0,2.0,82,0.00,,,0.00,Wunderground v.1.15,2013-06-08 03:50:00,
2013-06-07 21:00:00,61.1,55.6,29.72,SSE,164,2.0,4.0,82,0.00,,,0.00,Wunderground v.1.15,2013-06-08 04:00:00,
2013-06-07 21:05:00,60.9,55.7,29.72,South,169,3.0,4.0,83,0.00,,,0.00,Wunderground v.1.15,2013-06-08 04:05:00,
2013-06-07 21:10:00,60.9,55.7,29.72,SSE,167,4.0,6.0,83,0.00,,,0.00,Wunderground v.1.15,2013-06-08 04:10:00,
2013-06-07 21:20:00,60.8,55.6,29.72,South,186,4.0,4.0,83,0.00,,,0.00,Wunderground v.1.15,2013-06-08 04:20:00,
2013-06-07 21:25:00,60.6,55.4,29.72,SSW,193,4.0,7.0,83,0.00,,,0.00,Wunderground v.1.15,2013-06-08 04:25:00,
2013-06-07 21:35:00,60.5,55.3,29.73,SSE,154,3.0,3.0,83,0.00,,,0.00,Wunderground v.1.15,2013-06-08 04:35:00,
2013-06-07 21:40:00,60.5,55.3,29.73,SSE,150,4.0,4.0,83,0.00,,,0.00,Wunderground v.1.15,2013-06-08 04:40:00,
2013-06-07 21:51:00,60.3,55.1,29.73,SSE,154,4.0,4.0,83,0.00,,,0.00,Wunderground v.1.15,2013-06-08 04:51:00,
2013-06-07 21:55:00,60.3,55.1,29.73,South,169,5.0,5.0,83,0.00,,,0.00,Wunderground v.1.15,2013-06-08 04:55:00,
2013-06-07 22:00:00,60.3,55.1,29.73,SSW,193,4.0,4.0,83,0.00,,,0.00,Wunderground v.1.15,2013-06-08 05:00:00,
2013-06-07 22:10:00,60.1,54.9,29.73,South,186,3.0,5.0,83,0.00,,,0.00,Wunderground v.1.15,2013-06-08 05:10:00,
2013-06-07 22:15:00,60.1,54.9,29.73,SSW,206,3.0,5.0,83,0.00,,,0.00,Wunderground v.1.15,2013-06-08 05:15:00,
2013-06-07 22:26:00,60.3,55.4,29.73,SSE,167,3.0,3.0,84,0.00,,,0.00,Wunderground v.1.15,2013-06-08 05:26:00,
2013-06-07 22:30:00,60.3,55.4,29.73,South,185,3.0,3.0,84,0.00,,,0.00,Wunderground v.1.15,2013-06-08 05:30:00,
2013-06-07 22:35:00,60.3,55.4,29.73,South,186,2.0,3.0,84,0.00,,,0.00,Wunderground v.1.15,2013-06-08 05:35:00,
2013-06-07 22:45:00,60.5,55.3,29.73,SSW,200,2.0,2.0,83,0.00,,,0.00,Wunderground v.1.15,2013-06-08 05:45:00,
2013-06-07 22:50:00,60.3,55.1,29.73,SW,220,3.0,3.0,83,0.00,,,0.00,Wunderground v.1.15,2013-06-08 05:50:00,
2013-06-07 22:56:00,60.3,55.1,29.73,South,178,2.0,3.0,83,0.00,,,0.00,Wunderground v.1.15,2013-06-08 05:56:00,
2013-06-07 23:10:00,60.5,55.3,29.73,South,176,2.0,2.0,83,0.00,,,0.00,Wunderground v.1.15,2013-06-08 06:10:00,
2013-06-07 23:25:00,60.5,55.3,29.73,South,191,0.0,0.0,83,0.00,,,0.00,Wunderground v.1.15,2013-06-08 06:25:00,
2013-06-07 23:35:00,60.5,55.3,29.73,South,191,1.0,1.0,83,0.00,,,0.00,Wunderground v.1.15,2013-06-08 06:35:00,
2013-06-07 23:50:00,60.6,55.4,29.72,South,191,0.0,0.0,83,0.00,,,0.00,Wunderground v.1.15,2013-06-08 06:50:00,